Terminal Aerodrome Forecast
Issued by NWS

Home | Current Version | Previous Version | Text Only | Print | Product List | Glossary On
Versions: 1 2 3 4 5 6 7 8 9 10 11 12 13 14 15 16 17 18 19 20
000
FTUS41 KBTV 281134
TAFSLK
TAF
KSLK 281134Z 2812/2912 28008KT P6SM BKN025 BKN040
      TEMPO 2813/2817 SCT025 BKN040
     FM281700 28011G18KT P6SM BKN040
     FM282200 28008KT P6SM SCT040
     FM290100 28004KT P6SM SCT035
     FM290600 22005KT P6SM BKN080=

USA.gov is the U.S. government's official web portal to all federal, state and local government web resources and services.